sensor_id;sensor_type;location;lat;lon;timestamp;temperature;humidity
8928;DHT22;4499;48.304;11.902;2023-05-10T00:01:23;12.90;99.90
8928;DHT22;4499;48.304;11.902;2023-05-10T00:03:51;12.80;99.90
8928;DHT22;4499;48.304;11.902;2023-05-10T00:06:19;12.80;99.90
8928;DHT22;4499;48.304;11.902;2023-05-10T00:08:48;12.80;99.90
8928;DHT22;4499;48.304;11.902;2023-05-10T00:11:16;12.80;99.90
8928;DHT22;4499;48.304;11.902;2023-05-10T00:13:47;12.80;99.90
8928;DHT22;4499;48.304;11.902;2023-05-10T00:16:15;12.80;99.90
8928;DHT22;4499;48.304;11.902;2023-05-10T00:18:43;12.80;99.90
8928;DHT22;4499;48.304;11.902;2023-05-10T00:21:11;12.70;99.90
8928;DHT22;4499;48.304;11.902;2023-05-10T00:23:39;12.70;99.90
8928;DHT22;4499;48.304;11.902;2023-05-10T00:26:07;12.70;99.90
8928;DHT22;4499;48.304;11.902;2023-05-10T00:28:35;12.70;99.90
8928;DHT22;4499;48.304;11.902;2023-05-10T00:31:05;12.70;99.90
8928;DHT22;4499;48.304;11.902;2023-05-10T00:33:33;12.70;99.90
8928;DHT22;4499;48.304;11.902;2023-05-10T00:36:01;12.70;99.90
8928;DHT22;4499;48.304;11.902;2023-05-10T00:38:29;12.70;99.90
8928;DHT22;4499;48.304;11.902;2023-05-10T00:40:57;12.70;99.90
8928;DHT22;4499;48.304;11.902;2023-05-10T00:43:25;12.70;99.90
8928;DHT22;4499;48.304;11.902;2023-05-10T00:45:54;12.70;99.90
8928;DHT22;4499;48.304;11.902;2023-05-10T00:48:24;12.70;99.90
8928;DHT22;4499;48.304;11.902;2023-05-10T00:50:52;12.70;99.90
8928;DHT22;4499;48.304;11.902;2023-05-10T00:53:20;12.70;99.90
8928;DHT22;4499;48.304;11.902;2023-05-10T00:55:48;12.70;99.90
8928;DHT22;4499;48.304;11.902;2023-05-10T00:58:17;12.60;99.90
8928;DHT22;4499;48.304;11.902;2023-05-10T01:00:46;12.60;99.90
8928;DHT22;4499;48.304;11.902;2023-05-10T01:03:15;12.60;99.90
8928;DHT22;4499;48.304;11.902;2023-05-10T01:05:45;12.60;99.90
8928;DHT22;4499;48.304;11.902;2023-05-10T01:08:13;12.60;99.90
8928;DHT22;4499;48.304;11.902;2023-05-10T01:10:42;12.60;99.90
8928;DHT22;4499;48.304;11.902;2023-05-10T01:13:11;12.60;99.90
8928;DHT22;4499;48.304;11.902;2023-05-10T01:15:41;12.70;99.90
8928;DHT22;4499;48.304;11.902;2023-05-10T01:18:09;12.60;99.90
8928;DHT22;4499;48.304;11.902;2023-05-10T01:20:41;12.70;99.90
8928;DHT22;4499;48.304;11.902;2023-05-10T01:23:27;12.60;99.90
8928;DHT22;4499;48.304;11.902;2023-05-10T01:29:30;12.60;99.90
8928;DHT22;4499;48.304;11.902;2023-05-10T01:32:29;12.60;99.90
8928;DHT22;4499;48.304;11.902;2023-05-10T01:35:02;12.60;99.90
8928;DHT22;4499;48.304;11.902;2023-05-10T01:37:38;12.60;99.90
8928;DHT22;4499;48.304;11.902;2023-05-10T01:40:15;12.60;99.90
8928;DHT22;4499;48.304;11.902;2023-05-10T01:42:49;12.60;99.90
8928;DHT22;4499;48.304;11.902;2023-05-10T01:45:24;12.60;99.90
8928;DHT22;4499;48.304;11.902;2023-05-10T01:48:02;12.60;99.90
8928;DHT22;4499;48.304;11.902;2023-05-10T01:50:32;12.60;99.90
8928;DHT22;4499;48.304;11.902;2023-05-10T01:53:02;12.60;99.90
8928;DHT22;4499;48.304;11.902;2023-05-10T01:55:33;12.50;99.90
8928;DHT22;4499;48.304;11.902;2023-05-10T01:58:05;12.50;99.90
8928;DHT22;4499;48.304;11.902;2023-05-10T02:00:35;12.50;99.90
8928;DHT22;4499;48.304;11.902;2023-05-10T02:03:07;12.50;99.90
8928;DHT22;4499;48.304;11.902;2023-05-10T02:05:36;12.50;99.90
8928;DHT22;4499;48.304;11.902;2023-05-10T02:08:06;12.50;99.90
8928;DHT22;4499;48.304;11.902;2023-05-10T02:10:35;12.50;99.90
8928;DHT22;4499;48.304;11.902;2023-05-10T02:13:04;12.50;99.90
8928;DHT22;4499;48.304;11.902;2023-05-10T02:15:33;12.50;99.90
8928;DHT22;4499;48.304;11.902;2023-05-10T02:18:02;12.50;99.90
8928;DHT22;4499;48.304;11.902;2023-05-10T02:20:35;12.50;99.90
8928;DHT22;4499;48.304;11.902;2023-05-10T02:23:04;12.50;99.90
8928;DHT22;4499;48.304;11.902;2023-05-10T02:25:33;12.50;99.90
8928;DHT22;4499;48.304;11.902;2023-05-10T02:28:03;12.50;99.90
8928;DHT22;4499;48.304;11.902;2023-05-10T02:30:33;12.40;99.90
8928;DHT22;4499;48.304;11.902;2023-05-10T02:33:04;12.40;99.90
8928;DHT22;4499;48.304;11.902;2023-05-10T02:35:35;12.40;99.90
8928;DHT22;4499;48.304;11.902;2023-05-10T02:38:04;12.40;99.90
8928;DHT22;4499;48.304;11.902;2023-05-10T02:40:35;12.30;99.90
8928;DHT22;4499;48.304;11.902;2023-05-10T02:43:05;12.30;99.90
8928;DHT22;4499;48.304;11.902;2023-05-10T02:45:35;12.30;99.90
8928;DHT22;4499;48.304;11.902;2023-05-10T02:48:05;12.30;99.90
8928;DHT22;4499;48.304;11.902;2023-05-10T02:50:36;12.30;99.90
8928;DHT22;4499;48.304;11.902;2023-05-10T02:53:10;12.30;99.90
8928;DHT22;4499;48.304;11.902;2023-05-10T02:55:41;12.30;99.90
8928;DHT22;4499;48.304;11.902;2023-05-10T02:58:11;12.40;99.90
8928;DHT22;4499;48.304;11.902;2023-05-10T03:00:39;12.30;99.90
8928;DHT22;4499;48.304;11.902;2023-05-10T03:03:07;12.30;99.90
8928;DHT22;4499;48.304;11.902;2023-05-10T03:05:37;12.30;99.90
8928;DHT22;4499;48.304;11.902;2023-05-10T03:08:05;12.30;99.90
8928;DHT22;4499;48.304;11.902;2023-05-10T03:10:36;12.30;99.90
8928;DHT22;4499;48.304;11.902;2023-05-10T03:13:11;12.30;99.90
8928;DHT22;4499;48.304;11.902;2023-05-10T03:15:48;12.30;99.90
8928;DHT22;4499;48.304;11.902;2023-05-10T03:18:22;12.30;99.90
8928;DHT22;4499;48.304;11.902;2023-05-10T03:20:57;12.30;99.90
8928;DHT22;4499;48.304;11.902;2023-05-10T03:23:27;12.30;99.90
8928;DHT22;4499;48.304;11.902;2023-05-10T03:25:58;12.30;99.90
8928;DHT22;4499;48.304;11.902;2023-05-10T03:28:27;12.30;99.90
8928;DHT22;4499;48.304;11.902;2023-05-10T03:30:56;12.20;99.90
8928;DHT22;4499;48.304;11.902;2023-05-10T03:33:24;12.20;99.90
8928;DHT22;4499;48.304;11.902;2023-05-10T03:35:53;12.20;99.90
8928;DHT22;4499;48.304;11.902;2023-05-10T03:38:22;12.20;99.90
8928;DHT22;4499;48.304;11.902;2023-05-10T03:40:50;12.20;99.90
8928;DHT22;4499;48.304;11.902;2023-05-10T03:43:18;12.20;99.90
8928;DHT22;4499;48.304;11.902;2023-05-10T03:45:46;12.20;99.90
8928;DHT22;4499;48.304;11.902;2023-05-10T03:48:14;12.20;99.90
8928;DHT22;4499;48.304;11.902;2023-05-10T03:50:42;12.20;99.90
8928;DHT22;4499;48.304;11.902;2023-05-10T03:53:11;12.20;99.90
8928;DHT22;4499;48.304;11.902;2023-05-10T03:55:40;12.20;99.90
8928;DHT22;4499;48.304;11.902;2023-05-10T03:58:11;12.20;99.90
8928;DHT22;4499;48.304;11.902;2023-05-10T04:00:39;12.20;99.90
8928;DHT22;4499;48.304;11.902;2023-05-10T04:03:10;12.20;99.90
8928;DHT22;4499;48.304;11.902;2023-05-10T04:05:38;12.20;99.90
8928;DHT22;4499;48.304;11.902;2023-05-10T04:08:06;12.20;99.90
8928;DHT22;4499;48.304;11.902;2023-05-10T04:10:36;12.20;99.90
8928;DHT22;4499;48.304;11.902;2023-05-10T04:13:04;12.20;99.90
8928;DHT22;4499;48.304;11.902;2023-05-10T04:15:32;12.20;99.90
8928;DHT22;4499;48.304;11.902;2023-05-10T04:18:00;12.20;99.90
8928;DHT22;4499;48.304;11.902;2023-05-10T04:20:28;12.20;99.90
8928;DHT22;4499;48.304;11.902;2023-05-10T04:22:57;12.20;99.90
8928;DHT22;4499;48.304;11.902;2023-05-10T04:25:25;12.20;99.90
8928;DHT22;4499;48.304;11.902;2023-05-10T04:27:54;12.30;99.90
8928;DHT22;4499;48.304;11.902;2023-05-10T04:30:22;12.20;99.90
8928;DHT22;4499;48.304;11.902;2023-05-10T04:32:51;12.30;99.90
8928;DHT22;4499;48.304;11.902;2023-05-10T04:35:19;12.30;99.90
8928;DHT22;4499;48.304;11.902;2023-05-10T04:37:48;12.30;99.90
8928;DHT22;4499;48.304;11.902;2023-05-10T04:40:16;12.30;99.90
8928;DHT22;4499;48.304;11.902;2023-05-10T04:42:44;12.30;99.90
8928;DHT22;4499;48.304;11.902;2023-05-10T04:45:14;12.30;99.90
8928;DHT22;4499;48.304;11.902;2023-05-10T04:47:42;12.30;99.90
8928;DHT22;4499;48.304;11.902;2023-05-10T04:50:10;12.30;99.90
8928;DHT22;4499;48.304;11.902;2023-05-10T04:52:39;12.40;99.90
8928;DHT22;4499;48.304;11.902;2023-05-10T04:55:08;12.40;99.90
8928;DHT22;4499;48.304;11.902;2023-05-10T04:57:37;12.40;99.90
8928;DHT22;4499;48.304;11.902;2023-05-10T05:00:06;12.40;99.90
8928;DHT22;4499;48.304;11.902;2023-05-10T05:02:36;12.40;99.90
8928;DHT22;4499;48.304;11.902;2023-05-10T05:05:05;12.40;99.90
8928;DHT22;4499;48.304;11.902;2023-05-10T05:07:33;12.50;99.90
8928;DHT22;4499;48.304;11.902;2023-05-10T05:10:02;12.50;99.90
8928;DHT22;4499;48.304;11.902;2023-05-10T05:12:30;12.50;99.90
8928;DHT22;4499;48.304;11.902;2023-05-10T05:14:58;12.50;99.90
8928;DHT22;4499;48.304;11.902;2023-05-10T05:17:26;12.60;99.90
8928;DHT22;4499;48.304;11.902;2023-05-10T05:19:55;12.70;99.90
8928;DHT22;4499;48.304;11.902;2023-05-10T05:22:23;12.60;99.90
8928;DHT22;4499;48.304;11.902;2023-05-10T05:24:54;12.60;99.90
8928;DHT22;4499;48.304;11.902;2023-05-10T05:27:23;12.70;99.90
8928;DHT22;4499;48.304;11.902;2023-05-10T05:29:53;12.70;99.90
8928;DHT22;4499;48.304;11.902;2023-05-10T05:32:21;12.70;99.90
8928;DHT22;4499;48.304;11.902;2023-05-10T05:34:50;12.70;99.90
8928;DHT22;4499;48.304;11.902;2023-05-10T05:37:20;12.80;99.90
8928;DHT22;4499;48.304;11.902;2023-05-10T05:39:49;12.70;99.90
8928;DHT22;4499;48.304;11.902;2023-05-10T05:42:17;12.80;99.90
8928;DHT22;4499;48.304;11.902;2023-05-10T05:44:46;12.80;99.90
8928;DHT22;4499;48.304;11.902;2023-05-10T05:47:14;12.90;99.90
8928;DHT22;4499;48.304;11.902;2023-05-10T05:49:42;12.90;99.90
8928;DHT22;4499;48.304;11.902;2023-05-10T05:52:12;12.90;99.90
8928;DHT22;4499;48.304;11.902;2023-05-10T05:54:41;12.90;99.90
8928;DHT22;4499;48.304;11.902;2023-05-10T05:57:10;12.90;99.90
8928;DHT22;4499;48.304;11.902;2023-05-10T05:59:38;12.90;99.90
8928;DHT22;4499;48.304;11.902;2023-05-10T06:02:10;12.90;99.90
8928;DHT22;4499;48.304;11.902;2023-05-10T06:04:38;13.00;99.90
8928;DHT22;4499;48.304;11.902;2023-05-10T06:07:10;13.10;99.90
8928;DHT22;4499;48.304;11.902;2023-05-10T06:09:38;13.10;99.90
8928;DHT22;4499;48.304;11.902;2023-05-10T06:12:08;13.10;99.90
8928;DHT22;4499;48.304;11.902;2023-05-10T06:14:36;13.20;99.90
8928;DHT22;4499;48.304;11.902;2023-05-10T06:17:04;13.20;99.90
8928;DHT22;4499;48.304;11.902;2023-05-10T06:19:33;13.30;99.90
8928;DHT22;4499;48.304;11.902;2023-05-10T06:22:01;13.20;99.90
8928;DHT22;4499;48.304;11.902;2023-05-10T06:24:29;13.00;99.90
8928;DHT22;4499;48.304;11.902;2023-05-10T06:26:57;13.10;99.90
8928;DHT22;4499;48.304;11.902;2023-05-10T06:29:28;13.10;99.90
8928;DHT22;4499;48.304;11.902;2023-05-10T06:31:56;13.10;99.90
8928;DHT22;4499;48.304;11.902;2023-05-10T06:34:25;13.10;99.90
8928;DHT22;4499;48.304;11.902;2023-05-10T06:36:53;13.10;99.90
8928;DHT22;4499;48.304;11.902;2023-05-10T06:39:21;13.00;99.90
8928;DHT22;4499;48.304;11.902;2023-05-10T06:41:50;13.10;99.90
8928;DHT22;4499;48.304;11.902;2023-05-10T06:44:18;13.10;99.90
8928;DHT22;4499;48.304;11.902;2023-05-10T06:46:48;13.10;99.90
8928;DHT22;4499;48.304;11.902;2023-05-10T06:49:22;13.20;99.90
8928;DHT22;4499;48.304;11.902;2023-05-10T06:51:50;13.20;99.90
8928;DHT22;4499;48.304;11.902;2023-05-10T06:54:18;13.30;99.90
8928;DHT22;4499;48.304;11.902;2023-05-10T06:56:47;13.30;99.90
8928;DHT22;4499;48.304;11.902;2023-05-10T06:59:15;13.40;99.90
8928;DHT22;4499;48.304;11.902;2023-05-10T07:01:43;13.40;99.90
8928;DHT22;4499;48.304;11.902;2023-05-10T07:04:13;13.50;99.90
8928;DHT22;4499;48.304;11.902;2023-05-10T07:06:41;13.70;99.90
8928;DHT22;4499;48.304;11.902;2023-05-10T07:09:10;13.80;99.90
8928;DHT22;4499;48.304;11.902;2023-05-10T07:11:38;14.00;99.90
8928;DHT22;4499;48.304;11.902;2023-05-10T07:14:06;14.30;99.90
8928;DHT22;4499;48.304;11.902;2023-05-10T07:16:34;14.50;99.90
8928;DHT22;4499;48.304;11.902;2023-05-10T07:19:03;14.90;99.90
8928;DHT22;4499;48.304;11.902;2023-05-10T07:21:34;15.10;99.90
8928;DHT22;4499;48.304;11.902;2023-05-10T07:24:02;15.20;99.90
8928;DHT22;4499;48.304;11.902;2023-05-10T07:26:30;15.20;99.90
8928;DHT22;4499;48.304;11.902;2023-05-10T07:28:58;15.40;99.90
8928;DHT22;4499;48.304;11.902;2023-05-10T07:31:27;15.50;99.90
8928;DHT22;4499;48.304;11.902;2023-05-10T07:33:55;15.30;99.90
8928;DHT22;4499;48.304;11.902;2023-05-10T07:36:23;15.20;99.90
8928;DHT22;4499;48.304;11.902;2023-05-10T07:38:53;15.10;99.90
8928;DHT22;4499;48.304;11.902;2023-05-10T07:41:21;15.00;99.90
8928;DHT22;4499;48.304;11.902;2023-05-10T07:43:49;14.90;99.90
8928;DHT22;4499;48.304;11.902;2023-05-10T07:46:17;15.00;99.90
8928;DHT22;4499;48.304;11.902;2023-05-10T07:48:46;14.80;99.90
8928;DHT22;4499;48.304;11.902;2023-05-10T07:51:14;14.70;99.90
8928;DHT22;4499;48.304;11.902;2023-05-10T07:53:42;14.40;99.90
8928;DHT22;4499;48.304;11.902;2023-05-10T07:56:22;14.30;99.90
8928;DHT22;4499;48.304;11.902;2023-05-10T07:58:51;14.30;99.90
8928;DHT22;4499;48.304;11.902;2023-05-10T08:01:20;14.40;99.90
8928;DHT22;4499;48.304;11.902;2023-05-10T08:03:48;14.40;99.90
8928;DHT22;4499;48.304;11.902;2023-05-10T08:06:18;14.30;99.90
8928;DHT22;4499;48.304;11.902;2023-05-10T08:08:46;14.30;99.90
8928;DHT22;4499;48.304;11.902;2023-05-10T08:11:17;14.50;99.90
8928;DHT22;4499;48.304;11.902;2023-05-10T08:13:48;14.50;99.90
8928;DHT22;4499;48.304;11.902;2023-05-10T08:16:16;14.90;99.90
8928;DHT22;4499;48.304;11.902;2023-05-10T08:18:46;15.30;99.90
8928;DHT22;4499;48.304;11.902;2023-05-10T08:21:16;15.80;99.90
8928;DHT22;4499;48.304;11.902;2023-05-10T08:23:44;16.10;99.90
8928;DHT22;4499;48.304;11.902;2023-05-10T08:26:12;16.40;99.90
8928;DHT22;4499;48.304;11.902;2023-05-10T08:28:40;16.50;99.90
8928;DHT22;4499;48.304;11.902;2023-05-10T08:31:09;16.60;99.90
8928;DHT22;4499;48.304;11.902;2023-05-10T08:33:37;16.40;99.90
8928;DHT22;4499;48.304;11.902;2023-05-10T08:36:08;16.30;99.90
8928;DHT22;4499;48.304;11.902;2023-05-10T08:38:37;16.20;99.90
8928;DHT22;4499;48.304;11.902;2023-05-10T08:41:05;16.30;99.90
8928;DHT22;4499;48.304;11.902;2023-05-10T08:43:36;16.30;99.90
8928;DHT22;4499;48.304;11.902;2023-05-10T08:46:05;16.40;99.90
8928;DHT22;4499;48.304;11.902;2023-05-10T08:48:36;16.60;99.90
8928;DHT22;4499;48.304;11.902;2023-05-10T08:51:05;17.30;99.90
8928;DHT22;4499;48.304;11.902;2023-05-10T08:53:35;17.50;99.90
8928;DHT22;4499;48.304;11.902;2023-05-10T08:56:05;17.90;99.90
8928;DHT22;4499;48.304;11.902;2023-05-10T08:58:33;18.10;99.90
8928;DHT22;4499;48.304;11.902;2023-05-10T09:01:01;18.70;99.90
8928;DHT22;4499;48.304;11.902;2023-05-10T09:03:30;18.60;99.90
8928;DHT22;4499;48.304;11.902;2023-05-10T09:06:00;18.10;99.90
8928;DHT22;4499;48.304;11.902;2023-05-10T09:08:28;17.50;99.90
8928;DHT22;4499;48.304;11.902;2023-05-10T09:10:59;17.30;99.90
8928;DHT22;4499;48.304;11.902;2023-05-10T09:13:28;17.00;99.90
8928;DHT22;4499;48.304;11.902;2023-05-10T09:15:58;16.40;99.90
8928;DHT22;4499;48.304;11.902;2023-05-10T09:18:39;15.90;99.90
8928;DHT22;4499;48.304;11.902;2023-05-10T09:21:09;16.00;99.90
8928;DHT22;4499;48.304;11.902;2023-05-10T09:23:37;16.00;99.90
8928;DHT22;4499;48.304;11.902;2023-05-10T09:26:05;16.60;99.90
8928;DHT22;4499;48.304;11.902;2023-05-10T09:28:34;16.90;99.90
8928;DHT22;4499;48.304;11.902;2023-05-10T09:31:17;16.40;99.90
8928;DHT22;4499;48.304;11.902;2023-05-10T09:33:46;16.10;99.90
8928;DHT22;4499;48.304;11.902;2023-05-10T09:36:16;16.00;99.90
8928;DHT22;4499;48.304;11.902;2023-05-10T09:38:48;15.40;99.90
8928;DHT22;4499;48.304;11.902;2023-05-10T09:41:17;15.30;99.90
8928;DHT22;4499;48.304;11.902;2023-05-10T09:43:45;15.30;99.90
8928;DHT22;4499;48.304;11.902;2023-05-10T09:46:14;15.10;99.90
8928;DHT22;4499;48.304;11.902;2023-05-10T09:48:45;15.10;99.90
8928;DHT22;4499;48.304;11.902;2023-05-10T09:51:20;15.10;99.90
8928;DHT22;4499;48.304;11.902;2023-05-10T09:54:09;15.10;99.90
8928;DHT22;4499;48.304;11.902;2023-05-10T09:56:37;15.10;99.90
8928;DHT22;4499;48.304;11.902;2023-05-10T09:59:09;15.20;99.90
8928;DHT22;4499;48.304;11.902;2023-05-10T10:01:37;15.20;99.90
8928;DHT22;4499;48.304;11.902;2023-05-10T10:04:08;15.20;99.90
8928;DHT22;4499;48.304;11.902;2023-05-10T10:06:39;15.30;99.90
8928;DHT22;4499;48.304;11.902;2023-05-10T10:09:08;15.30;99.90
8928;DHT22;4499;48.304;11.902;2023-05-10T10:11:38;15.50;99.90
8928;DHT22;4499;48.304;11.902;2023-05-10T10:14:08;15.70;99.90
8928;DHT22;4499;48.304;11.902;2023-05-10T10:16:36;16.50;99.90
8928;DHT22;4499;48.304;11.902;2023-05-10T10:19:21;17.10;99.90
8928;DHT22;4499;48.304;11.902;2023-05-10T10:21:51;17.20;99.90
8928;DHT22;4499;48.304;11.902;2023-05-10T10:24:19;17.20;99.90
8928;DHT22;4499;48.304;11.902;2023-05-10T10:26:49;17.20;99.90
8928;DHT22;4499;48.304;11.902;2023-05-10T10:29:24;17.10;99.90
8928;DHT22;4499;48.304;11.902;2023-05-10T10:32:02;16.90;99.90
8928;DHT22;4499;48.304;11.902;2023-05-10T10:34:33;16.50;99.90
8928;DHT22;4499;48.304;11.902;2023-05-10T10:37:05;15.90;99.90
8928;DHT22;4499;48.304;11.902;2023-05-10T10:39:33;15.80;99.90
8928;DHT22;4499;48.304;11.902;2023-05-10T10:42:04;15.80;99.90
8928;DHT22;4499;48.304;11.902;2023-05-10T10:44:37;15.60;99.90
8928;DHT22;4499;48.304;11.902;2023-05-10T10:47:24;15.80;99.90
8928;DHT22;4499;48.304;11.902;2023-05-10T10:50:05;16.40;99.90
8928;DHT22;4499;48.304;11.902;2023-05-10T10:52:35;17.20;99.90
8928;DHT22;4499;48.304;11.902;2023-05-10T10:55:06;16.90;99.90
8928;DHT22;4499;48.304;11.902;2023-05-10T10:57:44;16.90;99.90
8928;DHT22;4499;48.304;11.902;2023-05-10T11:00:26;17.10;99.90
8928;DHT22;4499;48.304;11.902;2023-05-10T11:02:58;16.90;99.90
8928;DHT22;4499;48.304;11.902;2023-05-10T11:05:44;16.40;99.90
8928;DHT22;4499;48.304;11.902;2023-05-10T11:08:18;16.20;99.90
8928;DHT22;4499;48.304;11.902;2023-05-10T11:11:03;16.30;99.90
8928;DHT22;4499;48.304;11.902;2023-05-10T11:13:36;16.70;99.90
8928;DHT22;4499;48.304;11.902;2023-05-10T11:16:18;16.90;99.90
8928;DHT22;4499;48.304;11.902;2023-05-10T11:19:09;17.20;99.90
8928;DHT22;4499;48.304;11.902;2023-05-10T11:21:45;17.30;99.90
8928;DHT22;4499;48.304;11.902;2023-05-10T11:24:16;17.40;99.90
8928;DHT22;4499;48.304;11.902;2023-05-10T11:26:44;17.80;99.90
8928;DHT22;4499;48.304;11.902;2023-05-10T11:29:13;18.30;99.90
8928;DHT22;4499;48.304;11.902;2023-05-10T11:31:45;18.10;99.90
8928;DHT22;4499;48.304;11.902;2023-05-10T11:34:23;18.10;99.90
8928;DHT22;4499;48.304;11.902;2023-05-10T11:36:52;18.00;99.90
8928;DHT22;4499;48.304;11.902;2023-05-10T11:39:25;18.10;99.90
8928;DHT22;4499;48.304;11.902;2023-05-10T11:41:54;18.30;99.90
8928;DHT22;4499;48.304;11.902;2023-05-10T11:44:22;18.70;99.90
8928;DHT22;4499;48.304;11.902;2023-05-10T11:46:52;18.60;99.90
8928;DHT22;4499;48.304;11.902;2023-05-10T11:49:20;18.70;99.90
8928;DHT22;4499;48.304;11.902;2023-05-10T11:51:51;18.50;99.90
8928;DHT22;4499;48.304;11.902;2023-05-10T11:54:19;18.00;99.90
8928;DHT22;4499;48.304;11.902;2023-05-10T11:56:50;18.30;99.90
8928;DHT22;4499;48.304;11.902;2023-05-10T11:59:19;18.40;99.90
8928;DHT22;4499;48.304;11.902;2023-05-10T12:01:48;18.20;99.90
8928;DHT22;4499;48.304;11.902;2023-05-10T12:04:16;18.20;99.90
8928;DHT22;4499;48.304;11.902;2023-05-10T12:06:45;18.20;99.90
8928;DHT22;4499;48.304;11.902;2023-05-10T12:09:14;18.00;99.90
8928;DHT22;4499;48.304;11.902;2023-05-10T12:11:55;18.00;99.90
8928;DHT22;4499;48.304;11.902;2023-05-10T12:14:23;17.50;99.90
8928;DHT22;4499;48.304;11.902;2023-05-10T12:16:51;17.50;99.90
8928;DHT22;4499;48.304;11.902;2023-05-10T12:19:20;17.20;99.90
8928;DHT22;4499;48.304;11.902;2023-05-10T12:21:48;17.30;99.90
8928;DHT22;4499;48.304;11.902;2023-05-10T12:24:16;17.10;99.90
8928;DHT22;4499;48.304;11.902;2023-05-10T12:26:45;17.30;99.90
8928;DHT22;4499;48.304;11.902;2023-05-10T12:29:17;17.10;99.90
8928;DHT22;4499;48.304;11.902;2023-05-10T12:31:50;16.90;99.90
8928;DHT22;4499;48.304;11.902;2023-05-10T12:34:25;16.80;99.90
8928;DHT22;4499;48.304;11.902;2023-05-10T12:36:54;16.70;99.90
8928;DHT22;4499;48.304;11.902;2023-05-10T12:39:23;16.40;99.90
8928;DHT22;4499;48.304;11.902;2023-05-10T12:41:52;16.40;99.90
8928;DHT22;4499;48.304;11.902;2023-05-10T12:44:21;16.40;99.90
8928;DHT22;4499;48.304;11.902;2023-05-10T12:46:49;16.60;99.90
8928;DHT22;4499;48.304;11.902;2023-05-10T12:49:18;16.60;99.90
8928;DHT22;4499;48.304;11.902;2023-05-10T12:51:46;16.50;99.90
8928;DHT22;4499;48.304;11.902;2023-05-10T12:54:14;16.40;99.90
8928;DHT22;4499;48.304;11.902;2023-05-10T12:56:43;16.80;99.90
8928;DHT22;4499;48.304;11.902;2023-05-10T12:59:11;16.80;99.90
8928;DHT22;4499;48.304;11.902;2023-05-10T13:01:40;16.50;99.90
8928;DHT22;4499;48.304;11.902;2023-05-10T13:04:08;16.20;99.90
8928;DHT22;4499;48.304;11.902;2023-05-10T13:06:37;16.10;99.90
8928;DHT22;4499;48.304;11.902;2023-05-10T13:09:05;16.10;99.90
8928;DHT22;4499;48.304;11.902;2023-05-10T13:11:33;16.10;99.90
8928;DHT22;4499;48.304;11.902;2023-05-10T13:14:01;16.10;99.90
8928;DHT22;4499;48.304;11.902;2023-05-10T13:16:31;16.10;99.90
8928;DHT22;4499;48.304;11.902;2023-05-10T13:19:01;15.80;99.90
8928;DHT22;4499;48.304;11.902;2023-05-10T13:21:29;15.80;99.90
8928;DHT22;4499;48.304;11.902;2023-05-10T13:23:57;15.60;99.90
8928;DHT22;4499;48.304;11.902;2023-05-10T13:26:26;15.40;99.90
8928;DHT22;4499;48.304;11.902;2023-05-10T13:28:55;15.30;99.90
8928;DHT22;4499;48.304;11.902;2023-05-10T13:31:24;15.20;99.90
8928;DHT22;4499;48.304;11.902;2023-05-10T13:33:52;15.00;99.90
8928;DHT22;4499;48.304;11.902;2023-05-10T13:36:21;14.90;99.90
8928;DHT22;4499;48.304;11.902;2023-05-10T13:38:49;14.70;99.90
8928;DHT22;4499;48.304;11.902;2023-05-10T13:41:18;14.70;99.90
8928;DHT22;4499;48.304;11.902;2023-05-10T13:43:46;14.50;99.90
8928;DHT22;4499;48.304;11.902;2023-05-10T13:46:15;14.50;99.90
8928;DHT22;4499;48.304;11.902;2023-05-10T13:48:43;14.40;99.90
8928;DHT22;4499;48.304;11.902;2023-05-10T13:51:12;14.30;99.90
8928;DHT22;4499;48.304;11.902;2023-05-10T13:53:41;14.20;99.90
8928;DHT22;4499;48.304;11.902;2023-05-10T13:56:09;14.10;99.90
8928;DHT22;4499;48.304;11.902;2023-05-10T13:58:37;14.00;99.90
8928;DHT22;4499;48.304;11.902;2023-05-10T14:01:05;14.00;99.90
8928;DHT22;4499;48.304;11.902;2023-05-10T14:03:34;13.80;99.90
8928;DHT22;4499;48.304;11.902;2023-05-10T14:06:02;13.80;99.90
8928;DHT22;4499;48.304;11.902;2023-05-10T14:08:31;13.80;99.90
8928;DHT22;4499;48.304;11.902;2023-05-10T14:11:00;13.80;99.90
8928;DHT22;4499;48.304;11.902;2023-05-10T14:13:28;13.70;99.90
8928;DHT22;4499;48.304;11.902;2023-05-10T14:15:57;13.70;99.90
8928;DHT22;4499;48.304;11.902;2023-05-10T14:18:27;13.80;99.90
8928;DHT22;4499;48.304;11.902;2023-05-10T14:20:55;13.70;99.90
8928;DHT22;4499;48.304;11.902;2023-05-10T14:23:24;14.10;99.90
8928;DHT22;4499;48.304;11.902;2023-05-10T14:25:52;14.40;99.90
8928;DHT22;4499;48.304;11.902;2023-05-10T14:28:22;14.70;99.90
8928;DHT22;4499;48.304;11.902;2023-05-10T14:30:51;14.90;99.90
8928;DHT22;4499;48.304;11.902;2023-05-10T14:33:19;14.80;99.90
8928;DHT22;4499;48.304;11.902;2023-05-10T14:35:49;14.90;99.90
8928;DHT22;4499;48.304;11.902;2023-05-10T14:38:17;14.80;99.90
8928;DHT22;4499;48.304;11.902;2023-05-10T14:40:45;15.10;99.90
8928;DHT22;4499;48.304;11.902;2023-05-10T14:43:14;15.00;99.90
8928;DHT22;4499;48.304;11.902;2023-05-10T14:45:43;15.00;99.90
8928;DHT22;4499;48.304;11.902;2023-05-10T14:48:12;15.00;99.90
8928;DHT22;4499;48.304;11.902;2023-05-10T14:50:42;14.90;99.90
8928;DHT22;4499;48.304;11.902;2023-05-10T14:53:10;15.10;99.90
8928;DHT22;4499;48.304;11.902;2023-05-10T14:55:38;15.00;99.90
8928;DHT22;4499;48.304;11.902;2023-05-10T14:58:06;14.40;99.90
8928;DHT22;4499;48.304;11.902;2023-05-10T15:00:35;14.10;99.90
8928;DHT22;4499;48.304;11.902;2023-05-10T15:03:05;14.00;99.90
8928;DHT22;4499;48.304;11.902;2023-05-10T15:05:33;14.00;99.90
8928;DHT22;4499;48.304;11.902;2023-05-10T15:08:04;14.00;99.90
8928;DHT22;4499;48.304;11.902;2023-05-10T15:10:32;14.00;99.90
8928;DHT22;4499;48.304;11.902;2023-05-10T15:13:01;13.90;99.90
8928;DHT22;4499;48.304;11.902;2023-05-10T15:15:29;13.80;99.90
8928;DHT22;4499;48.304;11.902;2023-05-10T15:17:57;13.70;99.90
8928;DHT22;4499;48.304;11.902;2023-05-10T15:20:27;13.70;99.90
8928;DHT22;4499;48.304;11.902;2023-05-10T15:22:55;13.60;99.90
8928;DHT22;4499;48.304;11.902;2023-05-10T15:25:23;13.60;99.90
8928;DHT22;4499;48.304;11.902;2023-05-10T15:27:52;13.50;99.90
8928;DHT22;4499;48.304;11.902;2023-05-10T15:30:21;13.50;99.90
8928;DHT22;4499;48.304;11.902;2023-05-10T15:32:49;13.50;99.90
8928;DHT22;4499;48.304;11.902;2023-05-10T15:35:17;13.50;99.90
8928;DHT22;4499;48.304;11.902;2023-05-10T15:37:48;13.40;99.90
8928;DHT22;4499;48.304;11.902;2023-05-10T15:40:16;13.40;99.90
8928;DHT22;4499;48.304;11.902;2023-05-10T15:42:44;13.40;99.90
8928;DHT22;4499;48.304;11.902;2023-05-10T15:45:13;13.30;99.90
8928;DHT22;4499;48.304;11.902;2023-05-10T15:47:42;13.10;99.90
8928;DHT22;4499;48.304;11.902;2023-05-10T15:50:11;13.00;99.90
8928;DHT22;4499;48.304;11.902;2023-05-10T15:52:39;13.00;99.90
8928;DHT22;4499;48.304;11.902;2023-05-10T15:55:09;12.90;99.90
8928;DHT22;4499;48.304;11.902;2023-05-10T15:57:39;12.90;99.90
8928;DHT22;4499;48.304;11.902;2023-05-10T16:00:09;12.80;99.90
8928;DHT22;4499;48.304;11.902;2023-05-10T16:02:38;12.80;99.90
8928;DHT22;4499;48.304;11.902;2023-05-10T16:05:08;12.70;99.90